Time;durP1;ratioP1;P1;durP2;ratioP2;P2;SDS_P1;SDS_P2;PMS_P1;PMS_P2;Temp;Humidity;BMP_temperature;BMP_pressure;BME280_temperature;BME280_humidity;BME280_pressure;Samples;Min_cycle;Max_cycle;Signal;HPM_P1;HPM_P2
2023/10/24 00:02:06;;;;;;;13.73;7.55;;;12.90;99.90;;;;;;5054742;28;20370;-77
2023/10/24 00:04:32;;;;;;;9.68;6.80;;;13.00;99.90;;;;;;5063056;28;20203;-77
2023/10/24 00:06:57;;;;;;;11.55;7.30;;;13.00;99.90;;;;;;5050655;28;20052;-77
2023/10/24 00:09:23;;;;;;;10.45;5.93;;;13.00;99.90;;;;;;5062880;28;20508;-78
2023/10/24 00:11:49;;;;;;;10.52;5.97;;;13.00;99.90;;;;;;5058578;28;20078;-77
2023/10/24 00:14:14;;;;;;;9.43;5.60;;;13.00;99.90;;;;;;5053299;28;20024;-78
2023/10/24 00:16:40;;;;;;;13.40;6.75;;;13.00;99.90;;;;;;5060698;28;20485;-77
2023/10/24 00:19:06;;;;;;;8.88;5.40;;;13.00;99.90;;;;;;5062945;28;20654;-77
2023/10/24 00:21:31;;;;;;;12.02;6.82;;;13.00;99.90;;;;;;5040001;28;20017;-77
2023/10/24 00:23:57;;;;;;;7.13;5.57;;;12.90;99.90;;;;;;5055515;28;20025;-77
2023/10/24 00:26:23;;;;;;;11.35;6.20;;;13.00;99.90;;;;;;5060985;28;20845;-77
2023/10/24 00:28:48;;;;;;;11.27;6.53;;;13.00;99.90;;;;;;5058793;28;20020;-77
2023/10/24 00:31:14;;;;;;;11.10;7.32;;;12.90;99.90;;;;;;5053762;28;20035;-77
2023/10/24 00:33:40;;;;;;;11.65;6.22;;;12.90;99.90;;;;;;5060900;28;20013;-77
2023/10/24 00:36:05;;;;;;;11.45;6.07;;;12.90;99.90;;;;;;5047978;28;20035;-77
2023/10/24 00:38:31;;;;;;;10.15;5.88;;;12.90;99.90;;;;;;5061823;28;20028;-77
2023/10/24 00:40:57;;;;;;;10.55;6.68;;;12.90;99.90;;;;;;5059668;28;20028;-78
2023/10/24 00:43:22;;;;;;;9.65;6.88;;;12.90;99.90;;;;;;5053939;28;20078;-77
2023/10/24 00:45:48;;;;;;;7.35;4.72;;;12.90;99.90;;;;;;5061908;28;20108;-78
2023/10/24 00:48:14;;;;;;;10.88;6.07;;;12.90;99.90;;;;;;5053846;28;20029;-78
2023/10/24 00:50:39;;;;;;;14.73;8.50;;;13.00;99.90;;;;;;5059896;28;20398;-78
2023/10/24 00:53:05;;;;;;;12.10;7.95;;;13.00;99.90;;;;;;5050252;28;20021;-78
2023/10/24 00:55:32;;;;;;;12.25;10.23;;;13.00;99.90;;;;;;5061596;28;20118;-78
2023/10/24 00:57:59;;;;;;;10.40;7.43;;;13.00;99.90;;;;;;5056332;28;20020;-78
2023/10/24 01:00:26;;;;;;;17.90;11.05;;;13.00;99.90;;;;;;5053720;28;20554;-77
2023/10/24 01:02:53;;;;;;;17.63;11.07;;;13.00;99.90;;;;;;5061728;28;20561;-78
2023/10/24 01:05:18;;;;;;;14.05;10.25;;;13.00;99.90;;;;;;5060234;28;20029;-78
2023/10/24 01:07:45;;;;;;;18.85;11.10;;;13.00;99.90;;;;;;5053034;28;20036;-78
2023/10/24 01:10:11;;;;;;;15.65;9.45;;;13.00;99.90;;;;;;5057120;28;20032;-78
2023/10/24 01:12:38;;;;;;;12.30;8.77;;;13.00;99.90;;;;;;5060201;28;20021;-78
2023/10/24 01:15:05;;;;;;;13.25;8.35;;;13.00;99.90;;;;;;5054901;28;20032;-78
2023/10/24 01:17:31;;;;;;;17.27;9.75;;;12.90;99.90;;;;;;5052268;28;20104;-79
2023/10/24 01:19:56;;;;;;;11.35;9.05;;;13.00;99.90;;;;;;5054582;28;20116;-79
2023/10/24 01:22:22;;;;;;;12.80;8.75;;;13.00;99.90;;;;;;5054277;28;20036;-79
2023/10/24 01:24:49;;;;;;;14.18;7.85;;;13.00;99.90;;;;;;5061350;28;20115;-79
2023/10/24 01:27:15;;;;;;;10.05;7.00;;;12.90;99.90;;;;;;5058391;28;20052;-77
2023/10/24 01:29:40;;;;;;;13.85;7.50;;;12.90;99.90;;;;;;5053385;28;20497;-78
2023/10/24 01:32:06;;;;;;;13.85;8.00;;;12.90;99.90;;;;;;5057959;28;20035;-79
2023/10/24 01:34:32;;;;;;;11.48;6.97;;;12.90;99.90;;;;;;5047105;28;20021;-78
2023/10/24 01:36:58;;;;;;;9.32;7.22;;;12.90;99.90;;;;;;5059992;28;20542;-78
2023/10/24 01:39:24;;;;;;;12.95;7.50;;;12.90;99.90;;;;;;5060360;28;20054;-78
2023/10/24 01:41:49;;;;;;;12.43;7.25;;;12.90;99.90;;;;;;5052584;28;20032;-79
2023/10/24 01:44:15;;;;;;;12.35;7.88;;;12.90;99.90;;;;;;5056195;28;20366;-79
2023/10/24 01:46:41;;;;;;;10.05;6.93;;;12.90;99.90;;;;;;5061061;28;20016;-78
2023/10/24 01:49:06;;;;;;;10.52;7.57;;;12.90;99.90;;;;;;5056303;28;20073;-78
2023/10/24 01:51:32;;;;;;;11.68;7.10;;;12.90;99.90;;;;;;5052543;28;20025;-82
2023/10/24 01:53:57;;;;;;;13.93;7.38;;;12.90;99.90;;;;;;5051825;28;20017;-79
2023/10/24 01:56:23;;;;;;;10.30;6.45;;;12.80;99.90;;;;;;5057527;28;20045;-79
2023/10/24 01:58:49;;;;;;;13.30;7.20;;;12.80;99.90;;;;;;5061147;28;20525;-79
2023/10/24 02:01:14;;;;;;;9.05;5.55;;;12.80;99.90;;;;;;5053723;28;20069;-79
2023/10/24 02:03:40;;;;;;;10.98;6.78;;;12.80;99.90;;;;;;5054135;28;20388;-78
2023/10/24 02:06:06;;;;;;;9.85;6.18;;;12.80;99.90;;;;;;5059322;28;20759;-79
2023/10/24 02:08:31;;;;;;;8.38;5.63;;;12.80;99.90;;;;;;5056444;28;20112;-79
2023/10/24 02:10:57;;;;;;;9.30;5.97;;;12.80;99.90;;;;;;5052467;28;20052;-78
2023/10/24 02:13:23;;;;;;;7.97;5.38;;;12.80;99.90;;;;;;5057677;28;20136;-78
2023/10/24 02:15:51;;;;;;;8.30;5.20;;;12.70;99.90;;;;;;5060447;28;20458;-79
2023/10/24 02:18:16;;;;;;;8.00;5.13;;;12.80;99.90;;;;;;5053124;28;20025;-79
2023/10/24 02:20:42;;;;;;;8.43;5.30;;;12.80;99.90;;;;;;5053360;28;20024;-79
2023/10/24 02:23:08;;;;;;;8.25;4.65;;;12.70;99.90;;;;;;5060842;28;20489;-78
2023/10/24 02:25:37;;;;;;;7.32;4.90;;;12.70;99.90;;;;;;5056250;28;20024;-78
2023/10/24 02:28:03;;;;;;;7.57;4.22;;;12.70;99.90;;;;;;5052694;28;20082;-78
2023/10/24 02:30:29;;;;;;;7.10;4.68;;;12.70;99.90;;;;;;5056723;28;20100;-78
2023/10/24 02:33:00;;;;;;;8.48;4.70;;;12.70;99.90;;;;;;5060517;28;20120;-78
2023/10/24 02:35:26;;;;;;;;;;;12.70;99.90;;;;;;5055168;28;20017;-79
2023/10/24 02:37:52;;;;;;;5.35;3.70;;;12.70;99.90;;;;;;5052406;28;19911;-79
2023/10/24 02:40:18;;;;;;;6.47;4.15;;;12.60;99.90;;;;;;5060057;28;20025;-79
2023/10/24 02:42:43;;;;;;;4.38;3.28;;;12.60;99.90;;;;;;5046611;28;20407;-79
2023/10/24 02:45:09;;;;;;;7.30;3.47;;;12.60;99.90;;;;;;5059190;28;20029;-79
2023/10/24 02:47:35;;;;;;;8.70;4.03;;;12.60;99.90;;;;;;5055770;28;20082;-79
2023/10/24 02:50:00;;;;;;;5.18;3.55;;;12.60;99.90;;;;;;5060699;28;20073;-79
2023/10/24 02:52:28;;;;;;;6.25;4.13;;;12.60;99.90;;;;;;5048632;28;20021;-79
2023/10/24 02:54:54;;;;;;;6.65;4.10;;;12.60;99.90;;;;;;5055968;28;20111;-78
2023/10/24 02:57:19;;;;;;;6.18;4.10;;;12.60;99.90;;;;;;5050377;28;20132;-79
2023/10/24 02:59:45;;;;;;;8.40;4.93;;;12.60;99.90;;;;;;5056344;28;20033;-78
2023/10/24 03:02:11;;;;;;;7.45;4.80;;;12.60;99.90;;;;;;5060234;28;20028;-79
2023/10/24 03:04:36;;;;;;;7.18;4.40;;;12.60;99.90;;;;;;5053124;28;20025;-79
2023/10/24 03:07:03;;;;;;;7.32;4.30;;;12.60;99.90;;;;;;5053381;28;20483;-79
2023/10/24 03:09:28;;;;;;;8.55;5.05;;;12.60;99.90;;;;;;5058872;28;20025;-79
2023/10/24 03:11:54;;;;;;;5.93;4.55;;;12.60;99.90;;;;;;5056881;28;20029;-80
2023/10/24 03:14:20;;;;;;;7.80;5.22;;;12.60;99.90;;;;;;5052345;28;20017;-79
2023/10/24 03:16:45;;;;;;;8.50;5.68;;;12.60;99.90;;;;;;5057461;28;20501;-77
2023/10/24 03:19:11;;;;;;;8.85;5.15;;;12.60;99.90;;;;;;5060548;28;20024;-79
2023/10/24 03:21:37;;;;;;;8.65;5.47;;;12.60;99.90;;;;;;5044581;28;20760;-79
2023/10/24 03:24:03;;;;;;;8.48;6.25;;;12.60;99.90;;;;;;5057742;28;20020;-79
2023/10/24 03:26:29;;;;;;;7.30;5.43;;;12.60;99.90;;;;;;5051760;28;20024;-81
2023/10/24 03:28:54;;;;;;;8.68;5.85;;;12.60;99.90;;;;;;5055704;28;20470;-80
2023/10/24 03:31:20;;;;;;;10.57;5.70;;;12.60;99.90;;;;;;5063189;28;20111;-79
2023/10/24 03:33:46;;;;;;;7.95;4.70;;;12.60;99.90;;;;;;5057475;28;20154;-80
2023/10/24 03:36:15;;;;;;;7.78;5.40;;;12.60;99.90;;;;;;5053654;28;20779;-81
2023/10/24 03:38:41;;;;;;;9.27;5.90;;;12.60;99.90;;;;;;5061929;28;20017;-81
2023/10/24 03:41:07;;;;;;;10.13;5.85;;;12.50;99.90;;;;;;5062713;28;20028;-80
2023/10/24 03:43:34;;;;;;;7.20;4.93;;;12.60;99.90;;;;;;5049445;28;20025;-80
2023/10/24 03:46:05;;;;;;;8.10;4.95;;;12.50;99.90;;;;;;5047919;28;20044;-79
2023/10/24 03:48:31;;;;;;;7.10;5.07;;;12.50;99.90;;;;;;5063690;28;20021;-79
2023/10/24 03:51:01;;;;;;;6.22;4.72;;;12.50;99.90;;;;;;5058985;28;20086;-79
2023/10/24 03:53:28;;;;;;;9.10;4.63;;;12.50;99.90;;;;;;5065851;28;20035;-82
2023/10/24 03:55:58;;;;;;;8.98;4.85;;;12.50;99.90;;;;;;5055097;28;20040;-79
2023/10/24 03:58:24;;;;;;;6.32;4.07;;;12.50;99.90;;;;;;5056433;28;20029;-83
2023/10/24 04:00:50;;;;;;;5.22;4.10;;;12.40;99.90;;;;;;5047708;28;20017;-79
2023/10/24 04:03:16;;;;;;;7.25;4.70;;;12.40;99.90;;;;;;5058664;28;20367;-79
2023/10/24 04:05:41;;;;;;;7.45;4.60;;;12.50;99.90;;;;;;5054847;28;20091;-79
2023/10/24 04:08:08;;;;;;;6.95;4.38;;;12.40;99.90;;;;;;5060191;28;20040;-79
2023/10/24 04:10:34;;;;;;;5.95;3.92;;;12.40;99.90;;;;;;5060796;28;20024;-79
2023/10/24 04:13:00;;;;;;;4.75;3.75;;;12.40;99.90;;;;;;5054290;28;20024;-79
2023/10/24 04:15:27;;;;;;;6.20;3.55;;;12.50;99.90;;;;;;5056077;28;20107;-80
2023/10/24 04:17:53;;;;;;;6.35;4.30;;;12.40;99.90;;;;;;5062392;28;20025;-79
2023/10/24 04:20:19;;;;;;;4.68;3.30;;;12.40;99.90;;;;;;5057649;28;20024;-79
2023/10/24 04:22:47;;;;;;;5.68;3.60;;;12.40;99.90;;;;;;5054873;28;20033;-79
2023/10/24 04:25:13;;;;;;;6.15;3.72;;;12.40;99.90;;;;;;5060979;28;20033;-79
2023/10/24 04:27:39;;;;;;;9.75;4.45;;;12.40;99.90;;;;;;5062537;28;20150;-79
2023/10/24 04:30:08;;;;;;;6.30;4.32;;;12.40;99.90;;;;;;5055281;28;20024;-79
2023/10/24 04:32:33;;;;;;;6.35;3.88;;;12.40;99.90;;;;;;5055349;28;20112;-78
2023/10/24 04:35:00;;;;;;;6.10;4.05;;;12.40;99.90;;;;;;5062840;28;20051;-79
2023/10/24 04:37:25;;;;;;;6.78;4.38;;;12.40;99.90;;;;;;5059285;28;20143;-78
2023/10/24 04:39:51;;;;;;;6.85;4.60;;;12.40;99.90;;;;;;5054713;28;20542;-78
2023/10/24 04:42:17;;;;;;;5.22;3.88;;;12.40;99.90;;;;;;5057073;28;20574;-79
2023/10/24 04:44:42;;;;;;;7.25;4.75;;;12.40;99.90;;;;;;5057037;28;20035;-79
2023/10/24 04:47:08;;;;;;;6.95;4.63;;;12.40;99.90;;;;;;5061092;28;20021;-78
2023/10/24 04:49:36;;;;;;;7.10;4.43;;;12.30;99.90;;;;;;5060925;28;20024;-79
2023/10/24 04:52:02;;;;;;;6.63;4.53;;;12.30;99.90;;;;;;5048788;28;20021;-78
2023/10/24 04:54:28;;;;;;;5.63;4.13;;;12.30;99.90;;;;;;5055250;28;20375;-78
2023/10/24 04:56:55;;;;;;;6.40;4.03;;;12.30;99.90;;;;;;5054790;28;20040;-79
2023/10/24 04:59:20;;;;;;;7.50;4.70;;;12.30;99.90;;;;;;5061032;28;20025;-80
2023/10/24 05:01:46;;;;;;;7.00;4.75;;;12.30;99.90;;;;;;5047911;28;20029;-80
2023/10/24 05:04:12;;;;;;;6.28;4.50;;;12.30;99.90;;;;;;5062071;28;20020;-79
2023/10/24 05:06:38;;;;;;;5.25;4.05;;;12.30;99.90;;;;;;5056934;28;20035;-80
2023/10/24 05:09:03;;;;;;;7.05;4.57;;;12.30;99.90;;;;;;5052297;28;20025;-79
2023/10/24 05:11:29;;;;;;;6.50;4.47;;;12.30;99.90;;;;;;5059943;28;20025;-81
2023/10/24 05:13:55;;;;;;;7.97;3.75;;;12.30;99.90;;;;;;5061532;28;20017;-79
2023/10/24 05:16:21;;;;;;;6.28;4.45;;;12.30;99.90;;;;;;5050622;28;20111;-79
2023/10/24 05:18:46;;;;;;;6.25;4.53;;;12.20;99.90;;;;;;5047798;28;20121;-79
2023/10/24 05:21:12;;;;;;;6.72;4.63;;;12.30;99.90;;;;;;5050819;28;20032;-81
2023/10/24 05:23:38;;;;;;;7.53;5.35;;;12.30;99.90;;;;;;5053333;28;20367;-80
2023/10/24 05:26:03;;;;;;;7.70;5.18;;;12.20;99.90;;;;;;5055123;28;20036;-80
2023/10/24 05:28:30;;;;;;;8.20;4.55;;;12.20;99.90;;;;;;5047315;28;20027;-79
2023/10/24 05:30:57;;;;;;;8.32;5.70;;;12.20;99.90;;;;;;5044947;28;20508;-80
2023/10/24 05:33:23;;;;;;;7.45;5.45;;;12.20;99.90;;;;;;5052294;28;20405;-80
2023/10/24 05:35:48;;;;;;;8.23;5.68;;;12.20;99.90;;;;;;5048593;28;20021;-79
2023/10/24 05:38:14;;;;;;;8.88;5.45;;;12.20;99.90;;;;;;5042612;28;20040;-80
2023/10/24 05:40:40;;;;;;;7.45;4.75;;;12.20;99.90;;;;;;5046198;28;20028;-83
2023/10/24 05:43:06;;;;;;;6.32;5.03;;;12.20;99.90;;;;;;5061439;28;20036;-83
2023/10/24 05:45:32;;;;;;;7.90;4.65;;;12.20;99.90;;;;;;5050447;28;20044;-78
2023/10/24 05:48:00;;;;;;;5.80;4.28;;;12.20;99.90;;;;;;5046997;28;20036;-79
2023/10/24 05:50:26;;;;;;;8.00;5.40;;;12.20;99.90;;;;;;5048201;28;20043;-80
2023/10/24 05:53:02;;;;;;;7.55;5.50;;;12.20;99.90;;;;;;5034368;28;20048;-84
2023/10/24 05:55:27;;;;;;;7.68;4.95;;;12.20;99.90;;;;;;5055567;28;20569;-80
2023/10/24 05:57:53;;;;;;;7.43;4.93;;;12.20;99.90;;;;;;5053004;28;20592;-79
2023/10/24 06:00:19;;;;;;;7.50;5.50;;;12.20;99.90;;;;;;5052535;28;20039;-79
2023/10/24 06:02:45;;;;;;;10.30;5.78;;;12.20;99.90;;;;;;5055138;28;20028;-79
2023/10/24 06:05:10;;;;;;;8.27;5.70;;;12.20;99.90;;;;;;5053301;28;20031;-79
2023/10/24 06:07:36;;;;;;;7.38;5.18;;;12.20;99.90;;;;;;5048954;28;20029;-83
2023/10/24 06:10:03;;;;;;;9.25;5.82;;;12.20;99.90;;;;;;5046163;28;20079;-79
2023/10/24 06:12:30;;;;;;;7.68;5.07;;;12.20;99.90;;;;;;5047001;28;20021;-80
2023/10/24 06:14:55;;;;;;;8.40;6.07;;;12.20;99.90;;;;;;5046798;28;20029;-79
2023/10/24 06:17:21;;;;;;;6.93;5.40;;;12.20;99.90;;;;;;5046056;28;20032;-80
2023/10/24 06:19:49;;;;;;;8.73;5.70;;;12.20;99.90;;;;;;5050864;28;20086;-81
2023/10/24 06:22:15;;;;;;;6.05;4.82;;;12.20;99.90;;;;;;5040252;28;20028;-79
2023/10/24 06:24:41;;;;;;;7.55;6.00;;;12.20;99.90;;;;;;5051618;28;20116;-79
2023/10/24 06:27:09;;;;;;;5.70;4.55;;;12.20;99.90;;;;;;5045409;28;20120;-79
2023/10/24 06:29:34;;;;;;;7.95;6.60;;;12.20;99.90;;;;;;5058288;28;20060;-82
2023/10/24 06:32:02;;;;;;;9.52;5.88;;;12.20;99.90;;;;;;5063036;28;20059;-79
2023/10/24 06:34:27;;;;;;;12.18;6.32;;;12.20;99.90;;;;;;5048080;28;20022;-80
2023/10/24 06:36:53;;;;;;;7.13;5.65;;;12.20;99.90;;;;;;5046056;28;20029;-78
2023/10/24 06:39:19;;;;;;;7.22;5.47;;;12.20;99.90;;;;;;5047000;28;20134;-81
2023/10/24 06:41:45;;;;;;;6.57;5.20;;;12.20;99.90;;;;;;5051721;28;20462;-80
2023/10/24 06:44:11;;;;;;;6.70;5.45;;;12.20;99.90;;;;;;5049779;28;20025;-79
2023/10/24 06:46:36;;;;;;;7.25;5.65;;;12.20;99.90;;;;;;5049753;28;20608;-80
2023/10/24 06:49:02;;;;;;;6.07;4.88;;;12.20;99.90;;;;;;5048928;28;20025;-81
2023/10/24 06:51:28;;;;;;;6.03;4.65;;;12.20;99.90;;;;;;5050218;28;20032;-81
2023/10/24 06:53:53;;;;;;;6.40;5.13;;;12.20;99.90;;;;;;5057833;28;20415;-80
2023/10/24 06:56:19;;;;;;;6.28;4.53;;;12.20;99.90;;;;;;4994876;28;1798799;-80
2023/10/24 06:58:44;;;;;;;6.05;4.57;;;12.20;99.90;;;;;;5058492;28;20034;-79
2023/10/24 07:01:10;;;;;;;5.43;4.35;;;12.20;99.90;;;;;;5045750;28;20028;-78
2023/10/24 07:03:36;;;;;;;7.13;4.38;;;12.20;99.90;;;;;;5050904;28;20029;-79
2023/10/24 07:06:03;;;;;;;5.28;4.35;;;12.20;99.90;;;;;;5053784;28;20510;-79
2023/10/24 07:08:29;;;;;;;7.45;4.88;;;12.20;99.90;;;;;;5059055;28;20028;-78
2023/10/24 07:10:55;;;;;;;5.35;4.03;;;12.20;99.90;;;;;;5053625;28;20032;-78
2023/10/24 07:13:20;;;;;;;7.15;4.20;;;12.20;99.90;;;;;;5067485;28;20021;-79
2023/10/24 07:15:46;;;;;;;5.82;4.50;;;12.20;99.90;;;;;;5055463;28;20456;-79
2023/10/24 07:18:12;;;;;;;5.63;4.10;;;12.20;99.90;;;;;;5055557;28;20489;-78
2023/10/24 07:20:38;;;;;;;5.80;4.38;;;12.20;99.90;;;;;;5052468;28;20083;-79
2023/10/24 07:23:05;;;;;;;6.30;4.70;;;12.20;99.90;;;;;;5055202;28;20025;-79
2023/10/24 07:25:31;;;;;;;5.57;4.22;;;12.20;99.90;;;;;;5047507;28;20025;-79
2023/10/24 07:27:57;;;;;;;5.07;3.75;;;12.20;99.90;;;;;;5054807;28;20025;-79
2023/10/24 07:30:24;;;;;;;5.05;3.67;;;12.20;99.90;;;;;;5053053;28;20032;-78
2023/10/24 07:32:50;;;;;;;6.53;3.92;;;12.20;99.90;;;;;;5049977;28;20059;-78
2023/10/24 07:35:16;;;;;;;5.90;3.97;;;12.20;99.90;;;;;;5045768;28;20045;-78
2023/10/24 07:37:43;;;;;;;6.47;4.32;;;12.20;99.90;;;;;;5051968;28;20056;-78
2023/10/24 07:40:09;;;;;;;7.40;4.95;;;12.30;99.90;;;;;;5056068;28;20035;-78
2023/10/24 07:42:35;;;;;;;6.07;4.07;;;12.30;99.90;;;;;;5047049;28;20033;-78
2023/10/24 07:45:00;;;;;;;6.60;4.00;;;12.30;99.90;;;;;;5051432;28;20039;-78
2023/10/24 07:47:27;;;;;;;6.18;4.40;;;12.30;99.90;;;;;;5056862;28;20025;-78
2023/10/24 07:49:54;;;;;;;6.97;4.00;;;12.30;99.90;;;;;;5050508;28;20025;-78
2023/10/24 07:52:20;;;;;;;7.03;4.00;;;12.30;99.90;;;;;;5052743;28;20042;-79
2023/10/24 07:54:46;;;;;;;5.22;4.03;;;12.40;99.90;;;;;;5057012;28;20020;-78
2023/10/24 07:57:12;;;;;;;5.28;4.05;;;12.40;99.90;;;;;;5059424;28;20155;-79
2023/10/24 07:59:38;;;;;;;5.53;4.00;;;12.40;99.90;;;;;;5061821;28;20021;-79
2023/10/24 08:02:03;;;;;;;5.63;4.35;;;12.40;99.90;;;;;;5060262;28;20370;-79
2023/10/24 08:04:30;;;;;;;5.93;4.13;;;12.40;99.90;;;;;;5051505;28;20036;-79
2023/10/24 08:06:56;;;;;;;5.90;4.47;;;12.40;99.90;;;;;;5048769;28;20029;-80
2023/10/24 08:09:22;;;;;;;6.05;4.43;;;12.40;99.90;;;;;;5057203;28;20387;-79
2023/10/24 08:11:47;;;;;;;5.72;4.75;;;12.40;99.90;;;;;;5057081;28;20031;-79
2023/10/24 08:14:13;;;;;;;7.40;5.22;;;12.40;99.90;;;;;;5059816;28;20025;-79
2023/10/24 08:16:39;;;;;;;6.70;4.97;;;12.40;99.90;;;;;;5066732;28;20458;-79
2023/10/24 08:19:05;;;;;;;6.88;5.30;;;12.40;99.90;;;;;;5052054;28;20072;-79
2023/10/24 08:21:30;;;;;;;7.38;5.32;;;12.40;99.90;;;;;;5061149;28;20021;-79
2023/10/24 08:23:56;;;;;;;7.47;5.20;;;12.40;99.90;;;;;;5060589;28;20024;-79
2023/10/24 08:26:22;;;;;;;7.80;5.40;;;12.40;99.90;;;;;;5052933;28;20016;-79
2023/10/24 08:28:48;;;;;;;9.38;5.60;;;12.40;99.90;;;;;;5058577;28;20127;-78
2023/10/24 08:31:13;;;;;;;6.47;5.20;;;12.40;99.90;;;;;;5062629;28;20531;-79
2023/10/24 08:33:39;;;;;;;11.43;5.78;;;12.50;99.90;;;;;;5048701;28;20398;-79
2023/10/24 08:36:05;;;;;;;7.00;5.20;;;12.50;99.90;;;;;;5047302;28;20025;-79
2023/10/24 08:38:31;;;;;;;8.65;5.53;;;12.50;99.90;;;;;;5052031;28;20202;-79
2023/10/24 08:40:56;;;;;;;7.55;5.18;;;12.60;99.90;;;;;;5059525;28;20052;-79
2023/10/24 08:43:23;;;;;;;8.45;5.82;;;12.70;99.90;;;;;;5051024;28;20016;-80
2023/10/24 08:45:50;;;;;;;7.30;5.28;;;12.70;99.90;;;;;;5048165;28;20492;-80
2023/10/24 08:48:16;;;;;;;6.65;5.05;;;12.70;99.90;;;;;;5043409;28;20521;-79
2023/10/24 08:50:42;;;;;;;11.32;6.20;;;12.80;99.90;;;;;;5054052;28;20021;-79
2023/10/24 08:53:11;;;;;;;7.72;6.50;;;12.80;99.90;;;;;;5050124;28;20029;-80
2023/10/24 08:55:38;;;;;;;8.10;6.07;;;12.90;99.90;;;;;;5046364;28;20032;-79
2023/10/24 08:58:06;;;;;;;9.18;6.07;;;12.90;99.90;;;;;;5047713;28;20029;-79
2023/10/24 09:00:32;;;;;;;9.40;6.28;;;13.00;99.90;;;;;;5050823;28;20044;-77
2023/10/24 09:03:00;;;;;;;10.80;7.03;;;13.00;99.90;;;;;;5060550;28;20102;-78
2023/10/24 09:05:29;;;;;;;8.50;6.60;;;13.00;99.90;;;;;;5048271;28;20079;-81
2023/10/24 09:07:56;;;;;;;10.00;6.60;;;13.00;99.90;;;;;;5055080;28;20175;-79
2023/10/24 09:10:22;;;;;;;8.10;6.80;;;13.00;99.90;;;;;;5061646;28;20024;-79
2023/10/24 09:12:53;;;;;;;9.02;6.60;;;13.00;99.90;;;;;;5054032;28;20047;-79
2023/10/24 09:15:19;;;;;;;10.55;7.10;;;13.00;99.90;;;;;;5049082;28;20496;-79
2023/10/24 09:17:45;;;;;;;8.57;7.00;;;13.10;99.90;;;;;;5059874;28;20056;-80
2023/10/24 09:20:11;;;;;;;9.98;7.30;;;13.00;99.90;;;;;;5053160;28;20049;-79
2023/10/24 09:22:41;;;;;;;8.73;6.88;;;13.10;99.90;;;;;;5054068;28;20134;-78
2023/10/24 09:25:08;;;;;;;8.27;6.75;;;13.00;99.90;;;;;;5055523;28;20393;-79
2023/10/24 09:27:33;;;;;;;9.55;6.60;;;13.10;99.90;;;;;;5053122;28;20043;-82
2023/10/24 09:30:11;;;;;;;9.25;6.53;;;13.10;99.90;;;;;;5048542;28;20024;-80
2023/10/24 09:32:39;;;;;;;12.07;7.45;;;13.10;99.90;;;;;;5049654;28;20508;-78
2023/10/24 09:35:05;;;;;;;12.27;7.50;;;13.20;99.90;;;;;;5050578;28;20021;-79
2023/10/24 09:37:31;;;;;;;9.82;7.38;;;13.20;99.90;;;;;;5047954;28;20021;-77
2023/10/24 09:39:59;;;;;;;10.57;6.97;;;13.30;99.90;;;;;;5050963;28;20024;-77
2023/10/24 09:42:29;;;;;;;11.50;6.70;;;13.30;99.90;;;;;;5065520;28;20039;-79
2023/10/24 09:45:05;;;;;;;9.63;6.88;;;13.40;99.90;;;;;;5058545;28;20025;-78
2023/10/24 09:47:32;;;;;;;11.10;7.10;;;13.50;99.90;;;;;;5062379;28;20020;-78
2023/10/24 09:49:58;;;;;;;7.70;6.07;;;13.60;99.90;;;;;;5055746;28;20056;-77
2023/10/24 09:52:26;;;;;;;9.73;6.70;;;13.60;99.90;;;;;;5042779;28;20021;-77
2023/10/24 09:54:53;;;;;;;8.30;6.03;;;13.70;99.90;;;;;;5057567;28;20032;-79
2023/10/24 09:57:20;;;;;;;8.98;5.88;;;13.80;99.90;;;;;;5050860;28;20053;-79
2023/10/24 09:59:47;;;;;;;7.05;5.03;;;13.90;99.90;;;;;;5057778;28;20021;-80
2023/10/24 10:02:14;;;;;;;7.22;5.32;;;14.00;99.90;;;;;;5047861;28;20032;-79
2023/10/24 10:04:42;;;;;;;6.28;5.00;;;14.10;99.90;;;;;;5059876;28;20025;-79
2023/10/24 10:07:11;;;;;;;7.07;4.70;;;14.10;99.90;;;;;;5059047;28;20086;-76
2023/10/24 10:09:41;;;;;;;6.85;4.60;;;14.20;99.90;;;;;;5054633;28;20024;-79
2023/10/24 10:12:12;;;;;;;6.65;4.82;;;14.20;99.90;;;;;;5047399;28;20037;-79
2023/10/24 10:15:18;;;;;;;8.90;4.63;;;14.20;99.90;;;;;;5058817;28;20610;-78
2023/10/24 10:17:49;;;;;;;7.90;4.57;;;14.10;99.90;;;;;;5044379;28;20079;-80
2023/10/24 10:20:42;;;;;;;7.35;4.90;;;14.10;99.90;;;;;;5045859;28;20029;-78
2023/10/24 10:23:20;;;;;;;8.57;4.47;;;14.00;99.90;;;;;;5047766;28;20028;-79
2023/10/24 10:26:01;;;;;;;8.82;4.72;;;14.00;99.90;;;;;;5050629;28;20025;-78
2023/10/24 10:28:30;;;;;;;9.70;4.53;;;14.00;99.90;;;;;;5049133;28;20405;-77
2023/10/24 10:31:09;;;;;;;6.95;4.10;;;13.90;99.90;;;;;;5046517;28;20405;-78
2023/10/24 10:33:35;;;;;;;6.90;4.53;;;13.90;99.90;;;;;;5040527;28;20032;-78
2023/10/24 10:36:05;;;;;;;9.02;3.90;;;13.90;99.90;;;;;;5047739;28;20035;-78
2023/10/24 10:38:35;;;;;;;6.93;3.47;;;13.90;99.90;;;;;;5051716;28;20017;-78
2023/10/24 10:41:20;;;;;;;7.30;3.92;;;14.00;99.90;;;;;;5055869;28;20517;-79
2023/10/24 10:43:45;;;;;;;6.55;3.65;;;14.00;99.90;;;;;;5038457;28;20029;-79
2023/10/24 10:46:19;;;;;;;6.60;4.18;;;14.00;99.90;;;;;;5050375;28;20478;-79
2023/10/24 10:48:48;;;;;;;9.55;4.68;;;14.00;99.90;;;;;;5048906;28;20029;-78
2023/10/24 10:51:20;;;;;;;6.70;4.20;;;14.10;99.90;;;;;;5047358;28;20067;-79
2023/10/24 10:54:17;;;;;;;6.75;4.05;;;14.10;99.90;;;;;;5051551;28;20033;-80
2023/10/24 10:56:46;;;;;;;7.05;4.10;;;14.10;99.90;;;;;;5056050;28;20053;-79
2023/10/24 10:59:36;;;;;;;6.13;4.30;;;14.10;99.90;;;;;;5055120;28;20024;-79
2023/10/24 11:02:14;;;;;;;6.93;4.43;;;14.10;99.90;;;;;;5063756;28;20056;-79
2023/10/24 11:04:40;;;;;;;6.18;4.25;;;14.10;99.90;;;;;;5041282;28;20121;-80
2023/10/24 11:07:06;;;;;;;9.88;4.40;;;14.10;99.90;;;;;;5064244;28;20500;-79
2023/10/24 11:09:37;;;;;;;6.45;4.20;;;14.10;99.90;;;;;;5050168;28;20029;-78
2023/10/24 11:12:26;;;;;;;;;;;14.20;99.90;;;;;;5044399;28;20108;-79
2023/10/24 11:15:07;;;;;;;7.57;4.65;;;14.20;99.90;;;;;;5038035;28;19909;-79
2023/10/24 11:17:33;;;;;;;5.88;4.47;;;14.10;99.90;;;;;;5035895;28;20517;-79
2023/10/24 11:20:00;;;;;;;6.75;4.57;;;14.10;99.90;;;;;;5066470;28;20573;-79
2023/10/24 11:22:26;;;;;;;6.40;4.53;;;14.10;99.90;;;;;;5063257;28;20044;-81
2023/10/24 11:24:51;;;;;;;9.43;4.32;;;14.10;99.90;;;;;;5062985;28;20033;-79
2023/10/24 11:27:18;;;;;;;7.30;4.47;;;14.20;99.90;;;;;;5060204;28;20511;-80
2023/10/24 11:29:43;;;;;;;7.15;4.40;;;14.20;99.90;;;;;;5060477;28;20024;-79
2023/10/24 11:32:09;;;;;;;7.75;4.75;;;14.30;99.90;;;;;;5058272;28;20138;-79
2023/10/24 11:34:35;;;;;;;9.35;4.50;;;14.20;99.90;;;;;;5055445;28;20581;-79
2023/10/24 11:37:01;;;;;;;6.60;4.32;;;14.30;99.90;;;;;;5054830;28;20028;-80
2023/10/24 11:39:27;;;;;;;7.15;4.28;;;14.20;99.90;;;;;;5051413;28;20021;-79
2023/10/24 11:41:53;;;;;;;7.82;4.43;;;14.20;99.90;;;;;;5052551;28;20024;-80
2023/10/24 11:44:21;;;;;;;6.13;4.47;;;14.20;99.90;;;;;;5049002;28;20147;-83
2023/10/24 11:46:47;;;;;;;5.60;3.65;;;14.20;99.90;;;;;;5050322;28;20013;-79
2023/10/24 11:49:12;;;;;;;7.22;4.35;;;14.20;99.90;;;;;;5051964;28;20032;-79
2023/10/24 11:51:38;;;;;;;6.28;3.78;;;14.20;99.90;;;;;;5035477;28;20497;-79
2023/10/24 11:54:06;;;;;;;10.80;4.15;;;14.20;99.90;;;;;;5050854;28;20771;-78
2023/10/24 11:56:31;;;;;;;8.93;4.18;;;14.20;99.90;;;;;;5044791;28;20041;-79
2023/10/24 11:58:58;;;;;;;7.10;4.25;;;14.20;99.90;;;;;;5063053;28;20524;-77
2023/10/24 12:01:27;;;;;;;5.50;4.00;;;14.10;99.90;;;;;;5054666;28;20514;-80
2023/10/24 12:03:58;;;;;;;7.68;4.18;;;14.10;99.90;;;;;;5049950;28;20029;-78
2023/10/24 12:06:28;;;;;;;6.43;4.10;;;14.10;99.90;;;;;;5035431;28;20666;-78
2023/10/24 12:08:54;;;;;;;7.05;3.70;;;14.00;99.90;;;;;;5047408;28;20035;-78
2023/10/24 12:11:23;;;;;;;6.22;3.92;;;14.00;99.90;;;;;;5044278;28;20509;-78
2023/10/24 12:13:50;;;;;;;6.40;3.80;;;14.00;99.90;;;;;;5045230;28;20033;-77
2023/10/24 12:16:15;;;;;;;7.05;4.32;;;14.00;99.90;;;;;;5055054;28;20020;-78
2023/10/24 12:18:41;;;;;;;4.95;3.05;;;13.90;99.90;;;;;;5050370;28;20029;-79
2023/10/24 12:21:09;;;;;;;6.82;4.05;;;13.90;99.90;;;;;;5049745;28;20021;-78
2023/10/24 12:23:36;;;;;;;5.40;3.22;;;13.90;99.90;;;;;;5055490;28;20040;-80
2023/10/24 12:26:04;;;;;;;4.25;2.88;;;13.80;99.90;;;;;;5064454;28;20688;-79
2023/10/24 12:28:30;;;;;;;4.35;2.45;;;13.80;99.90;;;;;;5054276;28;20511;-79
2023/10/24 12:30:55;;;;;;;5.75;2.60;;;13.80;99.90;;;;;;5054805;28;20494;-78
2023/10/24 12:33:21;;;;;;;4.78;2.40;;;13.80;99.90;;;;;;5044055;28;20029;-76
2023/10/24 12:35:47;;;;;;;4.72;2.67;;;13.70;99.90;;;;;;5047467;28;20075;-78
2023/10/24 12:38:13;;;;;;;6.40;2.85;;;13.70;99.90;;;;;;5044757;28;20025;-77
2023/10/24 12:40:38;;;;;;;3.78;2.63;;;13.70;99.90;;;;;;5045223;28;20052;-76
2023/10/24 12:43:05;;;;;;;4.78;2.95;;;13.60;99.90;;;;;;5048130;28;20029;-79
2023/10/24 12:45:30;;;;;;;4.10;2.47;;;13.60;99.90;;;;;;5051797;28;20811;-78